sensor_id;sensor_type;location;lat;lon;timestamp;pressure;altitude;pressure_sealevel;temperature;humidity
11108;BME280;5607;48.302;14.294;2023-03-13T00:01:32;98336.66;;;5.26;100.00
11108;BME280;5607;48.302;14.294;2023-03-13T00:04:19;98338.22;;;5.29;100.00
11108;BME280;5607;48.302;14.294;2023-03-13T00:07:06;98334.81;;;5.28;100.00
11108;BME280;5607;48.302;14.294;2023-03-13T00:09:53;98330.78;;;5.24;100.00
11108;BME280;5607;48.302;14.294;2023-03-13T00:12:39;98331.78;;;5.34;100.00
11108;BME280;5607;48.302;14.294;2023-03-13T00:15:26;98340.44;;;5.22;100.00
11108;BME280;5607;48.302;14.294;2023-03-13T00:18:15;98333.94;;;5.17;100.00
11108;BME280;5607;48.302;14.294;2023-03-13T00:21:06;98327.69;;;5.19;100.00
11108;BME280;5607;48.302;14.294;2023-03-13T00:23:54;98317.59;;;5.27;100.00
11108;BME280;5607;48.302;14.294;2023-03-13T00:26:41;98313.25;;;5.17;100.00
11108;BME280;5607;48.302;14.294;2023-03-13T00:29:29;98321.78;;;5.06;100.00
11108;BME280;5607;48.302;14.294;2023-03-13T00:32:16;98305.97;;;4.98;100.00
11108;BME280;5607;48.302;14.294;2023-03-13T00:35:02;98313.75;;;4.98;100.00
11108;BME280;5607;48.302;14.294;2023-03-13T00:37:49;98306.81;;;4.98;100.00
11108;BME280;5607;48.302;14.294;2023-03-13T00:40:36;98296.53;;;4.97;100.00
11108;BME280;5607;48.302;14.294;2023-03-13T00:43:23;98295.84;;;4.95;100.00
11108;BME280;5607;48.302;14.294;2023-03-13T00:46:11;98293.94;;;4.97;100.00
11108;BME280;5607;48.302;14.294;2023-03-13T00:48:57;98284.78;;;4.93;100.00
11108;BME280;5607;48.302;14.294;2023-03-13T00:51:44;98287.31;;;5.05;100.00
11108;BME280;5607;48.302;14.294;2023-03-13T00:54:33;98288.03;;;4.83;100.00
11108;BME280;5607;48.302;14.294;2023-03-13T00:57:20;98281.09;;;4.84;100.00
11108;BME280;5607;48.302;14.294;2023-03-13T01:00:07;98253.88;;;4.67;100.00
11108;BME280;5607;48.302;14.294;2023-03-13T01:02:54;98270.16;;;4.80;100.00
11108;BME280;5607;48.302;14.294;2023-03-13T01:05:40;98266.84;;;4.78;100.00
11108;BME280;5607;48.302;14.294;2023-03-13T01:08:28;98273.75;;;4.78;100.00
11108;BME280;5607;48.302;14.294;2023-03-13T01:11:35;98259.53;;;4.72;100.00
11108;BME280;5607;48.302;14.294;2023-03-13T01:14:22;98258.41;;;4.88;100.00
11108;BME280;5607;48.302;14.294;2023-03-13T01:17:08;98247.06;;;4.77;100.00
11108;BME280;5607;48.302;14.294;2023-03-13T01:19:56;98256.09;;;4.72;100.00
11108;BME280;5607;48.302;14.294;2023-03-13T01:22:42;98250.22;;;4.70;100.00
11108;BME280;5607;48.302;14.294;2023-03-13T01:25:29;98244.22;;;4.69;100.00
11108;BME280;5607;48.302;14.294;2023-03-13T01:28:15;98227.66;;;4.72;100.00
11108;BME280;5607;48.302;14.294;2023-03-13T01:31:13;98228.44;;;4.61;100.00
11108;BME280;5607;48.302;14.294;2023-03-13T01:34:02;98228.66;;;4.58;100.00
11108;BME280;5607;48.302;14.294;2023-03-13T01:36:49;98227.00;;;4.57;100.00
11108;BME280;5607;48.302;14.294;2023-03-13T01:39:37;98222.53;;;4.59;100.00
11108;BME280;5607;48.302;14.294;2023-03-13T01:42:24;98220.31;;;4.54;100.00
11108;BME280;5607;48.302;14.294;2023-03-13T01:45:50;98224.88;;;4.51;100.00
11108;BME280;5607;48.302;14.294;2023-03-13T01:57:35;98215.41;;;4.39;100.00
11108;BME280;5607;48.302;14.294;2023-03-13T02:00:24;98203.63;;;4.35;100.00
11108;BME280;5607;48.302;14.294;2023-03-13T02:03:15;98198.94;;;4.40;100.00
11108;BME280;5607;48.302;14.294;2023-03-13T02:06:03;98203.91;;;4.43;100.00
11108;BME280;5607;48.302;14.294;2023-03-13T02:08:58;98197.19;;;4.40;100.00
11108;BME280;5607;48.302;14.294;2023-03-13T02:11:50;98207.13;;;4.33;100.00
11108;BME280;5607;48.302;14.294;2023-03-13T02:14:40;98197.97;;;4.29;100.00
11108;BME280;5607;48.302;14.294;2023-03-13T02:17:29;98197.25;;;4.27;100.00
11108;BME280;5607;48.302;14.294;2023-03-13T02:20:19;98197.47;;;4.24;100.00
11108;BME280;5607;48.302;14.294;2023-03-13T02:26:01;98194.84;;;4.37;100.00
11108;BME280;5607;48.302;14.294;2023-03-13T02:28:48;98198.44;;;4.35;100.00
11108;BME280;5607;48.302;14.294;2023-03-13T02:31:35;98195.38;;;4.29;100.00
11108;BME280;5607;48.302;14.294;2023-03-13T02:34:25;98196.78;;;4.10;100.00
11108;BME280;5607;48.302;14.294;2023-03-13T02:37:13;98185.63;;;4.09;100.00
11108;BME280;5607;48.302;14.294;2023-03-13T02:40:03;98191.13;;;4.04;100.00
11108;BME280;5607;48.302;14.294;2023-03-13T02:42:52;98186.78;;;4.05;100.00
11108;BME280;5607;48.302;14.294;2023-03-13T02:45:40;98183.19;;;4.31;100.00
11108;BME280;5607;48.302;14.294;2023-03-13T02:48:31;98185.63;;;4.09;100.00
11108;BME280;5607;48.302;14.294;2023-03-13T02:54:15;98181.22;;;3.98;100.00
11108;BME280;5607;48.302;14.294;2023-03-13T02:57:03;98190.22;;;3.93;100.00
11108;BME280;5607;48.302;14.294;2023-03-13T02:59:50;98191.44;;;4.00;100.00
11108;BME280;5607;48.302;14.294;2023-03-13T03:02:37;98195.28;;;3.94;100.00
11108;BME280;5607;48.302;14.294;2023-03-13T03:05:24;98188.28;;;3.84;100.00
11108;BME280;5607;48.302;14.294;2023-03-13T03:08:11;98195.50;;;3.91;100.00
11108;BME280;5607;48.302;14.294;2023-03-13T03:10:57;98199.75;;;3.92;100.00
11108;BME280;5607;48.302;14.294;2023-03-13T03:13:44;98201.81;;;3.87;100.00
11108;BME280;5607;48.302;14.294;2023-03-13T03:16:31;98203.16;;;3.80;100.00
11108;BME280;5607;48.302;14.294;2023-03-13T03:19:17;98214.84;;;3.86;100.00
11108;BME280;5607;48.302;14.294;2023-03-13T03:22:04;98210.28;;;3.76;100.00
11108;BME280;5607;48.302;14.294;2023-03-13T03:24:51;98212.06;;;3.76;100.00
11108;BME280;5607;48.302;14.294;2023-03-13T03:27:37;98207.19;;;3.71;100.00
11108;BME280;5607;48.302;14.294;2023-03-13T03:30:24;98212.34;;;3.71;100.00
11108;BME280;5607;48.302;14.294;2023-03-13T03:33:10;98219.91;;;3.74;100.00
11108;BME280;5607;48.302;14.294;2023-03-13T03:36:03;98220.63;;;3.76;100.00
11108;BME280;5607;48.302;14.294;2023-03-13T03:38:50;98221.22;;;3.93;100.00
11108;BME280;5607;48.302;14.294;2023-03-13T03:41:37;98214.69;;;4.00;100.00
11108;BME280;5607;48.302;14.294;2023-03-13T03:44:24;98219.16;;;3.98;100.00
11108;BME280;5607;48.302;14.294;2023-03-13T03:47:10;98212.44;;;3.95;100.00
11108;BME280;5607;48.302;14.294;2023-03-13T03:49:57;98210.06;;;3.92;100.00
11108;BME280;5607;48.302;14.294;2023-03-13T03:52:45;98222.47;;;3.87;100.00
11108;BME280;5607;48.302;14.294;2023-03-13T03:55:31;98210.56;;;3.97;100.00
11108;BME280;5607;48.302;14.294;2023-03-13T03:58:18;98214.56;;;4.14;100.00
11108;BME280;5607;48.302;14.294;2023-03-13T04:01:04;98177.72;;;3.99;100.00
11108;BME280;5607;48.302;14.294;2023-03-13T04:03:51;98202.38;;;4.16;100.00
11108;BME280;5607;48.302;14.294;2023-03-13T04:06:38;98203.81;;;4.08;100.00
11108;BME280;5607;48.302;14.294;2023-03-13T04:09:24;98199.59;;;4.07;100.00
11108;BME280;5607;48.302;14.294;2023-03-13T04:12:11;98201.44;;;4.17;100.00
11108;BME280;5607;48.302;14.294;2023-03-13T04:14:57;98203.69;;;4.09;100.00
11108;BME280;5607;48.302;14.294;2023-03-13T04:17:44;98208.78;;;4.11;100.00
11108;BME280;5607;48.302;14.294;2023-03-13T04:20:30;98194.38;;;4.19;100.00
11108;BME280;5607;48.302;14.294;2023-03-13T04:23:17;98202.75;;;4.23;100.00
11108;BME280;5607;48.302;14.294;2023-03-13T04:26:03;98202.38;;;4.16;100.00
11108;BME280;5607;48.302;14.294;2023-03-13T04:28:50;98201.94;;;4.22;100.00
11108;BME280;5607;48.302;14.294;2023-03-13T04:31:37;98201.09;;;4.22;100.00
11108;BME280;5607;48.302;14.294;2023-03-13T04:34:23;98192.03;;;4.03;100.00
11108;BME280;5607;48.302;14.294;2023-03-13T04:37:10;98189.03;;;4.10;100.00
11108;BME280;5607;48.302;14.294;2023-03-13T04:39:56;98190.22;;;3.93;100.00
11108;BME280;5607;48.302;14.294;2023-03-13T04:42:43;98187.53;;;3.94;100.00
11108;BME280;5607;48.302;14.294;2023-03-13T04:45:30;98195.88;;;4.11;100.00
11108;BME280;5607;48.302;14.294;2023-03-13T04:48:16;98171.53;;;3.89;100.00
11108;BME280;5607;48.302;14.294;2023-03-13T04:51:03;98193.81;;;4.03;100.00
11108;BME280;5607;48.302;14.294;2023-03-13T04:53:50;98190.81;;;3.96;100.00
11108;BME280;5607;48.302;14.294;2023-03-13T04:56:36;98191.66;;;3.97;100.00
11108;BME280;5607;48.302;14.294;2023-03-13T04:59:23;98194.16;;;3.98;100.00
11108;BME280;5607;48.302;14.294;2023-03-13T05:02:11;98186.13;;;4.14;100.00
11108;BME280;5607;48.302;14.294;2023-03-13T05:04:58;98183.34;;;4.17;100.00
11108;BME280;5607;48.302;14.294;2023-03-13T05:07:45;98174.78;;;4.17;100.00
11108;BME280;5607;48.302;14.294;2023-03-13T05:10:31;98172.38;;;4.14;100.00
11108;BME280;5607;48.302;14.294;2023-03-13T05:13:18;98183.84;;;4.22;100.00
11108;BME280;5607;48.302;14.294;2023-03-13T05:16:05;98179.66;;;4.32;100.00
11108;BME280;5607;48.302;14.294;2023-03-13T05:18:51;98179.59;;;4.45;100.00
11108;BME280;5607;48.302;14.294;2023-03-13T05:21:39;98179.00;;;4.42;100.00
11108;BME280;5607;48.302;14.294;2023-03-13T05:24:25;98179.38;;;4.48;100.00
11108;BME280;5607;48.302;14.294;2023-03-13T05:27:12;98176.94;;;4.58;100.00
11108;BME280;5607;48.302;14.294;2023-03-13T05:29:59;98172.47;;;4.49;100.00
11108;BME280;5607;48.302;14.294;2023-03-13T05:32:45;98174.09;;;4.50;100.00
11108;BME280;5607;48.302;14.294;2023-03-13T05:35:32;98179.78;;;4.55;100.00
11108;BME280;5607;48.302;14.294;2023-03-13T05:38:18;98185.06;;;4.53;100.00
11108;BME280;5607;48.302;14.294;2023-03-13T05:41:05;98173.78;;;4.54;100.00
11108;BME280;5607;48.302;14.294;2023-03-13T05:43:51;98169.91;;;4.60;100.00
11108;BME280;5607;48.302;14.294;2023-03-13T05:46:38;98166.34;;;4.50;100.00
11108;BME280;5607;48.302;14.294;2023-03-13T05:49:24;98163.44;;;4.66;100.00
11108;BME280;5607;48.302;14.294;2023-03-13T05:52:11;98170.06;;;4.70;100.00
11108;BME280;5607;48.302;14.294;2023-03-13T05:54:57;98169.50;;;4.77;100.00
11108;BME280;5607;48.302;14.294;2023-03-13T05:57:45;98148.56;;;4.69;100.00
11108;BME280;5607;48.302;14.294;2023-03-13T06:00:32;98162.19;;;4.71;100.00
11108;BME280;5607;48.302;14.294;2023-03-13T06:03:19;98153.88;;;4.79;100.00
11108;BME280;5607;48.302;14.294;2023-03-13T06:06:05;98152.84;;;4.93;100.00
11108;BME280;5607;48.302;14.294;2023-03-13T06:08:52;98147.19;;;4.88;100.00
11108;BME280;5607;48.302;14.294;2023-03-13T06:11:38;98148.72;;;4.79;100.00
11108;BME280;5607;48.302;14.294;2023-03-13T06:14:25;98139.75;;;4.83;100.00
11108;BME280;5607;48.302;14.294;2023-03-13T06:17:12;98146.03;;;5.03;100.00
11108;BME280;5607;48.302;14.294;2023-03-13T06:19:58;98137.34;;;5.04;100.00
11108;BME280;5607;48.302;14.294;2023-03-13T06:22:47;98126.41;;;5.00;100.00
11108;BME280;5607;48.302;14.294;2023-03-13T06:25:34;98126.19;;;5.14;100.00
11108;BME280;5607;48.302;14.294;2023-03-13T06:28:21;98129.03;;;5.23;100.00
11108;BME280;5607;48.302;14.294;2023-03-13T06:31:09;98112.75;;;5.21;100.00
11108;BME280;5607;48.302;14.294;2023-03-13T06:33:56;98126.78;;;5.29;100.00
11108;BME280;5607;48.302;14.294;2023-03-13T06:36:43;98122.31;;;5.43;100.00
11108;BME280;5607;48.302;14.294;2023-03-13T06:39:30;98114.53;;;5.43;100.00
11108;BME280;5607;48.302;14.294;2023-03-13T06:42:16;98129.13;;;5.55;100.00
11108;BME280;5607;48.302;14.294;2023-03-13T06:45:03;98123.47;;;5.61;100.00
11108;BME280;5607;48.302;14.294;2023-03-13T06:47:50;98131.59;;;5.67;100.00
11108;BME280;5607;48.302;14.294;2023-03-13T06:50:38;98113.00;;;5.74;100.00
11108;BME280;5607;48.302;14.294;2023-03-13T06:53:25;98108.97;;;5.81;100.00
11108;BME280;5607;48.302;14.294;2023-03-13T06:56:11;98092.34;;;5.83;100.00
11108;BME280;5607;48.302;14.294;2023-03-13T06:58:58;98097.06;;;6.01;100.00
11108;BME280;5607;48.302;14.294;2023-03-13T07:01:44;98109.38;;;6.08;100.00
11108;BME280;5607;48.302;14.294;2023-03-13T07:04:31;98116.66;;;6.26;100.00
11108;BME280;5607;48.302;14.294;2023-03-13T07:07:18;98110.09;;;6.42;100.00
11108;BME280;5607;48.302;14.294;2023-03-13T07:10:04;98117.72;;;6.55;100.00
11108;BME280;5607;48.302;14.294;2023-03-13T07:12:51;98104.88;;;6.54;100.00
11108;BME280;5607;48.302;14.294;2023-03-13T07:15:38;98108.41;;;6.53;100.00
11108;BME280;5607;48.302;14.294;2023-03-13T07:18:24;98096.31;;;6.63;100.00
11108;BME280;5607;48.302;14.294;2023-03-13T07:21:11;98104.56;;;6.68;100.00
11108;BME280;5607;48.302;14.294;2023-03-13T07:23:58;98090.44;;;6.82;100.00
11108;BME280;5607;48.302;14.294;2023-03-13T07:26:45;98102.41;;;6.94;100.00
11108;BME280;5607;48.302;14.294;2023-03-13T07:29:31;98102.75;;;6.89;100.00
11108;BME280;5607;48.302;14.294;2023-03-13T07:32:18;98103.72;;;6.88;100.00
11108;BME280;5607;48.302;14.294;2023-03-13T07:35:05;98102.41;;;6.94;100.00
11108;BME280;5607;48.302;14.294;2023-03-13T07:37:52;98112.72;;;7.05;100.00
11108;BME280;5607;48.302;14.294;2023-03-13T07:40:39;98109.91;;;7.18;100.00
11108;BME280;5607;48.302;14.294;2023-03-13T07:43:26;98100.13;;;7.31;100.00
11108;BME280;5607;48.302;14.294;2023-03-13T07:46:18;98087.88;;;7.43;100.00
11108;BME280;5607;48.302;14.294;2023-03-13T07:49:05;98076.16;;;7.58;100.00
11108;BME280;5607;48.302;14.294;2023-03-13T07:51:51;98080.41;;;7.69;100.00
11108;BME280;5607;48.302;14.294;2023-03-13T07:54:38;98066.34;;;7.81;100.00
11108;BME280;5607;48.302;14.294;2023-03-13T07:57:24;98054.56;;;7.67;100.00
11108;BME280;5607;48.302;14.294;2023-03-13T08:00:11;98053.06;;;7.65;100.00
11108;BME280;5607;48.302;14.294;2023-03-13T08:03:01;98067.31;;;7.80;100.00
11108;BME280;5607;48.302;14.294;2023-03-13T08:06:00;98074.72;;;7.94;100.00
11108;BME280;5607;48.302;14.294;2023-03-13T08:08:47;98076.94;;;8.08;100.00
11108;BME280;5607;48.302;14.294;2023-03-13T08:11:34;98073.78;;;8.05;100.00
11108;BME280;5607;48.302;14.294;2023-03-13T08:14:21;98085.97;;;8.14;100.00
11108;BME280;5607;48.302;14.294;2023-03-13T08:17:07;98114.00;;;7.91;100.00
11108;BME280;5607;48.302;14.294;2023-03-13T08:19:54;98112.38;;;8.09;100.00
11108;BME280;5607;48.302;14.294;2023-03-13T08:22:40;98097.72;;;8.18;100.00
11108;BME280;5607;48.302;14.294;2023-03-13T08:25:27;98077.22;;;8.34;100.00
11108;BME280;5607;48.302;14.294;2023-03-13T08:28:13;98053.81;;;8.63;100.00
11108;BME280;5607;48.302;14.294;2023-03-13T08:31:11;98027.84;;;8.81;100.00
11108;BME280;5607;48.302;14.294;2023-03-13T08:33:58;98042.34;;;8.94;100.00
11108;BME280;5607;48.302;14.294;2023-03-13T08:36:45;98057.16;;;8.93;100.00
11108;BME280;5607;48.302;14.294;2023-03-13T08:39:32;98059.31;;;9.07;100.00
11108;BME280;5607;48.302;14.294;2023-03-13T08:42:18;98063.72;;;9.07;100.00
11108;BME280;5607;48.302;14.294;2023-03-13T08:45:06;98074.22;;;9.15;100.00
11108;BME280;5607;48.302;14.294;2023-03-13T08:47:52;98082.94;;;9.24;100.00
11108;BME280;5607;48.302;14.294;2023-03-13T08:50:39;98064.22;;;9.48;100.00
11108;BME280;5607;48.302;14.294;2023-03-13T08:53:26;98076.19;;;9.40;100.00
11108;BME280;5607;48.302;14.294;2023-03-13T08:56:15;98067.16;;;9.25;100.00
11108;BME280;5607;48.302;14.294;2023-03-13T08:59:04;98057.97;;;9.31;100.00
11108;BME280;5607;48.302;14.294;2023-03-13T09:01:50;98052.19;;;9.37;100.00
11108;BME280;5607;48.302;14.294;2023-03-13T09:04:37;98053.72;;;9.30;100.00
11108;BME280;5607;48.302;14.294;2023-03-13T09:07:24;98053.63;;;9.22;100.00
11108;BME280;5607;48.302;14.294;2023-03-13T09:10:10;98002.63;;;8.92;100.00
11108;BME280;5607;48.302;14.294;2023-03-13T09:12:57;98043.38;;;9.20;100.00
11108;BME280;5607;48.302;14.294;2023-03-13T09:15:43;98026.91;;;9.20;100.00
11108;BME280;5607;48.302;14.294;2023-03-13T09:18:31;98037.38;;;9.00;100.00
11108;BME280;5607;48.302;14.294;2023-03-13T09:21:20;98034.19;;;9.16;100.00
11108;BME280;5607;48.302;14.294;2023-03-13T09:24:07;98023.75;;;9.26;100.00
11108;BME280;5607;48.302;14.294;2023-03-13T09:26:54;98028.63;;;9.29;100.00
11108;BME280;5607;48.302;14.294;2023-03-13T09:29:40;98032.59;;;9.33;100.00
11108;BME280;5607;48.302;14.294;2023-03-13T09:32:27;97996.53;;;9.38;100.00
11108;BME280;5607;48.302;14.294;2023-03-13T09:35:14;98015.34;;;9.32;100.00
11108;BME280;5607;48.302;14.294;2023-03-13T09:38:01;98005.81;;;9.40;100.00
11108;BME280;5607;48.302;14.294;2023-03-13T09:40:49;98004.06;;;9.59;100.00
11108;BME280;5607;48.302;14.294;2023-03-13T09:43:48;98021.88;;;9.63;100.00
11108;BME280;5607;48.302;14.294;2023-03-13T09:46:44;98018.81;;;9.68;100.00
11108;BME280;5607;48.302;14.294;2023-03-13T09:49:54;97992.47;;;9.89;100.00
11108;BME280;5607;48.302;14.294;2023-03-13T09:52:43;98010.78;;;9.97;100.00
11108;BME280;5607;48.302;14.294;2023-03-13T09:55:31;98010.56;;;10.08;100.00
11108;BME280;5607;48.302;14.294;2023-03-13T09:58:26;98004.91;;;10.13;100.00
11108;BME280;5607;48.302;14.294;2023-03-13T10:01:16;97987.41;;;10.23;100.00
11108;BME280;5607;48.302;14.294;2023-03-13T10:04:27;97996.78;;;10.60;100.00
11108;BME280;5607;48.302;14.294;2023-03-13T10:07:15;97981.59;;;10.81;100.00
11108;BME280;5607;48.302;14.294;2023-03-13T10:10:05;97984.00;;;10.74;100.00
11108;BME280;5607;48.302;14.294;2023-03-13T10:12:56;97986.03;;;10.89;100.00
11108;BME280;5607;48.302;14.294;2023-03-13T10:15:56;97980.69;;;10.98;100.00
11108;BME280;5607;48.302;14.294;2023-03-13T10:18:47;97973.81;;;10.97;100.00
11108;BME280;5607;48.302;14.294;2023-03-13T10:21:38;97968.53;;;10.81;100.00
11108;BME280;5607;48.302;14.294;2023-03-13T10:24:38;97965.38;;;10.69;100.00
11108;BME280;5607;48.302;14.294;2023-03-13T10:27:26;97970.06;;;10.40;100.00
11108;BME280;5607;48.302;14.294;2023-03-13T10:30:25;97955.97;;;10.50;100.00
11108;BME280;5607;48.302;14.294;2023-03-13T10:33:17;97977.13;;;10.47;100.00
11108;BME280;5607;48.302;14.294;2023-03-13T10:36:11;97957.22;;;10.46;100.00
11108;BME280;5607;48.302;14.294;2023-03-13T10:38:58;97969.00;;;10.50;100.00
11108;BME280;5607;48.302;14.294;2023-03-13T10:41:47;97947.59;;;10.73;100.00
11108;BME280;5607;48.302;14.294;2023-03-13T10:44:34;97957.69;;;11.02;100.00
11108;BME280;5607;48.302;14.294;2023-03-13T10:47:20;97946.25;;;11.03;100.00
11108;BME280;5607;48.302;14.294;2023-03-13T10:50:17;97950.72;;;11.19;100.00
11108;BME280;5607;48.302;14.294;2023-03-13T10:56:13;97937.72;;;11.43;100.00
11108;BME280;5607;48.302;14.294;2023-03-13T10:59:01;97941.47;;;11.41;100.00
11108;BME280;5607;48.302;14.294;2023-03-13T11:01:49;97945.72;;;11.42;100.00
11108;BME280;5607;48.302;14.294;2023-03-13T11:04:36;97934.25;;;11.35;100.00
11108;BME280;5607;48.302;14.294;2023-03-13T11:07:33;97924.50;;;11.53;100.00
11108;BME280;5607;48.302;14.294;2023-03-13T11:13:40;97936.63;;;11.62;100.00
11108;BME280;5607;48.302;14.294;2023-03-13T11:16:28;97941.69;;;11.55;100.00
11108;BME280;5607;48.302;14.294;2023-03-13T11:22:52;97929.59;;;11.63;100.00
11108;BME280;5607;48.302;14.294;2023-03-13T11:32:04;97893.50;;;11.99;98.87
11108;BME280;5607;48.302;14.294;2023-03-13T11:35:00;97885.81;;;12.05;98.69
11108;BME280;5607;48.302;14.294;2023-03-13T11:37:51;97880.34;;;12.23;97.80
11108;BME280;5607;48.302;14.294;2023-03-13T11:41:02;97880.09;;;11.94;97.45
11108;BME280;5607;48.302;14.294;2023-03-13T11:47:01;97873.06;;;12.58;94.89
11108;BME280;5607;48.302;14.294;2023-03-13T11:49:56;97863.13;;;12.84;94.01
11108;BME280;5607;48.302;14.294;2023-03-13T11:56:07;97844.72;;;13.32;89.05
11108;BME280;5607;48.302;14.294;2023-03-13T12:01:52;97845.69;;;13.54;85.69
11108;BME280;5607;48.302;14.294;2023-03-13T12:04:44;97840.19;;;13.49;85.38
11108;BME280;5607;48.302;14.294;2023-03-13T12:07:48;97826.41;;;13.46;84.84
11108;BME280;5607;48.302;14.294;2023-03-13T12:10:41;97827.13;;;13.40;100.00
11108;BME280;5607;48.302;14.294;2023-03-13T12:13:38;59411.84;;;-143.53;100.00
11108;BME280;5607;48.302;14.294;2023-03-13T12:16:37;59411.84;;;-143.53;100.00
11108;BME280;5607;48.302;14.294;2023-03-13T12:19:31;59411.84;;;-143.53;100.00
11108;BME280;5607;48.302;14.294;2023-03-13T12:22:27;59411.84;;;-143.53;100.00
11108;BME280;5607;48.302;14.294;2023-03-13T12:25:25;59411.84;;;-143.53;100.00
11108;BME280;5607;48.302;14.294;2023-03-13T12:31:27;59411.84;;;-143.53;100.00
11108;BME280;5607;48.302;14.294;2023-03-13T12:37:38;59411.84;;;-143.53;100.00
11108;BME280;5607;48.302;14.294;2023-03-13T12:40:37;59411.84;;;-143.53;100.00
11108;BME280;5607;48.302;14.294;2023-03-13T12:43:31;59411.84;;;-143.53;100.00
11108;BME280;5607;48.302;14.294;2023-03-13T12:46:41;59411.84;;;-143.53;100.00
11108;BME280;5607;48.302;14.294;2023-03-13T12:50:11;59411.84;;;-143.53;100.00
11108;BME280;5607;48.302;14.294;2023-03-13T12:53:23;59411.84;;;-143.53;100.00
11108;BME280;5607;48.302;14.294;2023-03-13T12:59:56;59411.84;;;-143.53;100.00
11108;BME280;5607;48.302;14.294;2023-03-13T13:02:45;59411.84;;;-143.53;100.00
11108;BME280;5607;48.302;14.294;2023-03-13T13:05:32;59411.84;;;-143.53;100.00
11108;BME280;5607;48.302;14.294;2023-03-13T13:08:25;59411.84;;;-143.53;100.00
11108;BME280;5607;48.302;14.294;2023-03-13T13:32:13;59411.84;;;-143.53;100.00
11108;BME280;5607;48.302;14.294;2023-03-13T13:44:19;59411.84;;;-143.53;100.00
11108;BME280;5607;48.302;14.294;2023-03-13T13:47:22;59411.84;;;-143.53;100.00
11108;BME280;5607;48.302;14.294;2023-03-13T13:50:24;59411.84;;;-143.53;100.00
11108;BME280;5607;48.302;14.294;2023-03-13T13:53:31;59411.84;;;-143.53;100.00
11108;BME280;5607;48.302;14.294;2023-03-13T14:05:06;59411.84;;;-143.53;100.00
11108;BME280;5607;48.302;14.294;2023-03-13T14:08:15;59411.84;;;-143.53;100.00
11108;BME280;5607;48.302;14.294;2023-03-13T14:11:29;59411.84;;;-143.53;100.00
11108;BME280;5607;48.302;14.294;2023-03-13T14:14:20;59411.84;;;-143.53;100.00
11108;BME280;5607;48.302;14.294;2023-03-13T14:17:08;59411.84;;;-143.53;100.00
11108;BME280;5607;48.302;14.294;2023-03-13T14:19:55;59411.84;;;-143.53;100.00
11108;BME280;5607;48.302;14.294;2023-03-13T14:22:47;59411.84;;;-143.53;100.00
11108;BME280;5607;48.302;14.294;2023-03-13T14:28:30;59411.84;;;-143.53;100.00
11108;BME280;5607;48.302;14.294;2023-03-13T14:31:21;59411.84;;;-143.53;100.00
11108;BME280;5607;48.302;14.294;2023-03-13T14:34:11;59411.84;;;-143.53;100.00
11108;BME280;5607;48.302;14.294;2023-03-13T14:36:59;59411.84;;;-143.53;100.00
11108;BME280;5607;48.302;14.294;2023-03-13T14:39:46;59411.84;;;-143.53;100.00
11108;BME280;5607;48.302;14.294;2023-03-13T14:42:42;59411.84;;;-143.53;100.00
11108;BME280;5607;48.302;14.294;2023-03-13T14:45:34;59411.84;;;-143.53;100.00
11108;BME280;5607;48.302;14.294;2023-03-13T14:48:31;59411.84;;;-143.53;100.00
11108;BME280;5607;48.302;14.294;2023-03-13T14:51:22;59411.84;;;-143.53;100.00
11108;BME280;5607;48.302;14.294;2023-03-13T14:57:19;59411.84;;;-143.53;100.00
11108;BME280;5607;48.302;14.294;2023-03-13T15:00:35;59411.84;;;-143.53;100.00
11108;BME280;5607;48.302;14.294;2023-03-13T15:03:29;59411.84;;;-143.53;100.00
11108;BME280;5607;48.302;14.294;2023-03-13T15:06:18;59411.84;;;-143.53;100.00
11108;BME280;5607;48.302;14.294;2023-03-13T15:09:13;59411.84;;;-143.53;100.00
11108;BME280;5607;48.302;14.294;2023-03-13T15:12:01;59411.84;;;-143.53;100.00
11108;BME280;5607;48.302;14.294;2023-03-13T15:14:50;59411.84;;;-143.53;100.00
11108;BME280;5607;48.302;14.294;2023-03-13T15:17:37;59411.84;;;-143.53;100.00
11108;BME280;5607;48.302;14.294;2023-03-13T15:20:23;59411.84;;;-143.53;100.00
11108;BME280;5607;48.302;14.294;2023-03-13T15:23:12;59411.84;;;-143.53;100.00
11108;BME280;5607;48.302;14.294;2023-03-13T15:26:00;59411.84;;;-143.53;100.00
11108;BME280;5607;48.302;14.294;2023-03-13T15:28:47;59411.84;;;-143.53;100.00
11108;BME280;5607;48.302;14.294;2023-03-13T15:31:33;59411.84;;;-143.53;100.00
11108;BME280;5607;48.302;14.294;2023-03-13T15:34:21;59411.84;;;-143.53;100.00
11108;BME280;5607;48.302;14.294;2023-03-13T15:37:11;59411.84;;;-143.53;100.00
11108;BME280;5607;48.302;14.294;2023-03-13T15:39:58;59411.84;;;-143.53;100.00
11108;BME280;5607;48.302;14.294;2023-03-13T15:42:45;59411.84;;;-143.53;100.00
11108;BME280;5607;48.302;14.294;2023-03-13T15:45:31;59411.84;;;-143.53;100.00
11108;BME280;5607;48.302;14.294;2023-03-13T15:48:23;59411.84;;;-143.53;100.00
11108;BME280;5607;48.302;14.294;2023-03-13T15:51:13;59411.84;;;-143.53;100.00
11108;BME280;5607;48.302;14.294;2023-03-13T15:54:00;59411.84;;;-143.53;100.00
11108;BME280;5607;48.302;14.294;2023-03-13T15:56:47;59411.84;;;-143.53;100.00
11108;BME280;5607;48.302;14.294;2023-03-13T15:59:33;59411.84;;;-143.53;100.00
11108;BME280;5607;48.302;14.294;2023-03-13T16:02:22;59411.84;;;-143.53;100.00
11108;BME280;5607;48.302;14.294;2023-03-13T16:05:09;59411.84;;;-143.53;100.00
11108;BME280;5607;48.302;14.294;2023-03-13T16:07:56;59411.84;;;-143.53;100.00
11108;BME280;5607;48.302;14.294;2023-03-13T16:10:43;59411.84;;;-143.53;100.00
11108;BME280;5607;48.302;14.294;2023-03-13T16:13:30;59411.84;;;-143.53;100.00
11108;BME280;5607;48.302;14.294;2023-03-13T16:16:18;59411.84;;;-143.53;100.00
11108;BME280;5607;48.302;14.294;2023-03-13T16:19:07;59411.84;;;-143.53;100.00
11108;BME280;5607;48.302;14.294;2023-03-13T16:21:54;59411.84;;;-143.53;100.00
11108;BME280;5607;48.302;14.294;2023-03-13T16:24:41;59411.84;;;-143.53;100.00